sensor_id;sensor_type;location;lat;lon;timestamp;P1;durP1;ratioP1;P2;durP2;ratioP2
40707;SDS011;26392;42.696;23.350;2023-02-01T00:01:30;11.27;;;5.68;;
40707;SDS011;26392;42.696;23.350;2023-02-01T00:03:55;6.97;;;4.57;;
40707;SDS011;26392;42.696;23.350;2023-02-01T00:06:21;8.52;;;4.93;;
40707;SDS011;26392;42.696;23.350;2023-02-01T00:08:46;9.55;;;5.10;;
40707;SDS011;26392;42.696;23.350;2023-02-01T00:11:12;7.95;;;5.15;;
40707;SDS011;26392;42.696;23.350;2023-02-01T00:13:38;12.35;;;5.05;;
40707;SDS011;26392;42.696;23.350;2023-02-01T00:16:12;10.48;;;5.45;;
40707;SDS011;26392;42.696;23.350;2023-02-01T00:18:42;8.85;;;4.75;;
40707;SDS011;26392;42.696;23.350;2023-02-01T00:21:12;9.85;;;5.20;;
40707;SDS011;26392;42.696;23.350;2023-02-01T00:23:39;6.97;;;4.40;;
40707;SDS011;26392;42.696;23.350;2023-02-01T00:26:07;9.65;;;5.32;;
40707;SDS011;26392;42.696;23.350;2023-02-01T00:28:45;6.85;;;4.68;;
40707;SDS011;26392;42.696;23.350;2023-02-01T00:31:10;10.57;;;5.43;;
40707;SDS011;26392;42.696;23.350;2023-02-01T00:33:36;7.80;;;4.70;;
40707;SDS011;26392;42.696;23.350;2023-02-01T00:36:02;7.20;;;4.70;;
40707;SDS011;26392;42.696;23.350;2023-02-01T00:38:30;10.68;;;4.80;;
40707;SDS011;26392;42.696;23.350;2023-02-01T00:41:04;8.65;;;4.57;;
40707;SDS011;26392;42.696;23.350;2023-02-01T00:43:31;13.17;;;5.10;;
40707;SDS011;26392;42.696;23.350;2023-02-01T00:45:57;9.80;;;4.55;;
40707;SDS011;26392;42.696;23.350;2023-02-01T00:48:23;8.38;;;4.80;;
40707;SDS011;26392;42.696;23.350;2023-02-01T00:50:48;12.25;;;5.10;;
40707;SDS011;26392;42.696;23.350;2023-02-01T00:53:14;8.32;;;4.50;;
40707;SDS011;26392;42.696;23.350;2023-02-01T00:55:39;7.35;;;4.50;;
40707;SDS011;26392;42.696;23.350;2023-02-01T00:58:05;7.70;;;4.35;;
40707;SDS011;26392;42.696;23.350;2023-02-01T01:00:34;6.97;;;3.85;;
40707;SDS011;26392;42.696;23.350;2023-02-01T01:03:00;10.70;;;4.07;;
40707;SDS011;26392;42.696;23.350;2023-02-01T01:05:25;9.27;;;4.57;;
40707;SDS011;26392;42.696;23.350;2023-02-01T01:07:52;12.15;;;4.82;;
40707;SDS011;26392;42.696;23.350;2023-02-01T01:10:18;10.43;;;3.90;;
40707;SDS011;26392;42.696;23.350;2023-02-01T01:12:44;8.02;;;3.85;;
40707;SDS011;26392;42.696;23.350;2023-02-01T01:15:09;5.15;;;3.70;;
40707;SDS011;26392;42.696;23.350;2023-02-01T01:17:35;5.97;;;3.50;;
40707;SDS011;26392;42.696;23.350;2023-02-01T01:20:01;10.00;;;4.50;;
40707;SDS011;26392;42.696;23.350;2023-02-01T01:22:26;5.68;;;3.15;;
40707;SDS011;26392;42.696;23.350;2023-02-01T01:24:51;7.43;;;3.80;;
40707;SDS011;26392;42.696;23.350;2023-02-01T01:27:17;7.40;;;3.70;;
40707;SDS011;26392;42.696;23.350;2023-02-01T01:29:47;6.95;;;3.00;;
40707;SDS011;26392;42.696;23.350;2023-02-01T01:32:13;6.93;;;4.00;;
40707;SDS011;26392;42.696;23.350;2023-02-01T01:34:38;6.72;;;3.53;;
40707;SDS011;26392;42.696;23.350;2023-02-01T01:37:04;5.55;;;3.40;;
40707;SDS011;26392;42.696;23.350;2023-02-01T01:39:29;4.22;;;2.97;;
40707;SDS011;26392;42.696;23.350;2023-02-01T01:41:55;8.52;;;4.85;;
40707;SDS011;26392;42.696;23.350;2023-02-01T01:47:23;7.35;;;2.80;;
40707;SDS011;26392;42.696;23.350;2023-02-01T01:49:50;4.85;;;2.72;;
40707;SDS011;26392;42.696;23.350;2023-02-01T01:52:16;6.82;;;2.85;;
40707;SDS011;26392;42.696;23.350;2023-02-01T01:54:43;6.75;;;3.08;;
40707;SDS011;26392;42.696;23.350;2023-02-01T01:57:14;5.32;;;2.88;;
40707;SDS011;26392;42.696;23.350;2023-02-01T01:59:50;6.15;;;2.90;;
40707;SDS011;26392;42.696;23.350;2023-02-01T02:02:21;5.13;;;3.00;;
40707;SDS011;26392;42.696;23.350;2023-02-01T02:04:46;7.47;;;3.40;;
40707;SDS011;26392;42.696;23.350;2023-02-01T02:07:17;5.25;;;2.83;;
40707;SDS011;26392;42.696;23.350;2023-02-01T02:09:46;11.05;;;3.25;;
40707;SDS011;26392;42.696;23.350;2023-02-01T02:12:11;13.25;;;2.95;;
40707;SDS011;26392;42.696;23.350;2023-02-01T02:14:37;6.28;;;3.00;;
40707;SDS011;26392;42.696;23.350;2023-02-01T02:33:46;5.95;;;2.72;;
40707;SDS011;26392;42.696;23.350;2023-02-01T02:44:46;10.43;;;3.83;;
40707;SDS011;26392;42.696;23.350;2023-02-01T02:47:51;9.77;;;3.78;;
40707;SDS011;26392;42.696;23.350;2023-02-01T02:53:16;4.85;;;2.80;;
40707;SDS011;26392;42.696;23.350;2023-02-01T02:56:21;6.53;;;3.22;;
40707;SDS011;26392;42.696;23.350;2023-02-01T02:59:07;9.02;;;2.97;;
40707;SDS011;26392;42.696;23.350;2023-02-01T03:01:53;6.45;;;3.50;;
40707;SDS011;26392;42.696;23.350;2023-02-01T03:08:10;6.93;;;2.67;;
40707;SDS011;26392;42.696;23.350;2023-02-01T03:10:26;10.52;;;3.08;;
40707;SDS011;26392;42.696;23.350;2023-02-01T03:13:51;10.52;;;3.10;;
40707;SDS011;26392;42.696;23.350;2023-02-01T03:18:57;8.50;;;3.00;;
40707;SDS011;26392;42.696;23.350;2023-02-01T03:21:48;7.32;;;3.25;;
40707;SDS011;26392;42.696;23.350;2023-02-01T03:24:18;5.93;;;2.50;;
40707;SDS011;26392;42.696;23.350;2023-02-01T03:26:58;6.72;;;2.75;;
40707;SDS011;26392;42.696;23.350;2023-02-01T03:29:36;5.47;;;2.63;;
40707;SDS011;26392;42.696;23.350;2023-02-01T03:32:09;5.22;;;2.90;;
40707;SDS011;26392;42.696;23.350;2023-02-01T03:34:34;7.35;;;3.08;;
40707;SDS011;26392;42.696;23.350;2023-02-01T03:37:01;5.03;;;2.72;;
40707;SDS011;26392;42.696;23.350;2023-02-01T03:39:38;4.93;;;2.42;;
40707;SDS011;26392;42.696;23.350;2023-02-01T03:42:18;7.00;;;2.80;;
40707;SDS011;26392;42.696;23.350;2023-02-01T03:47:39;6.05;;;2.28;;
40707;SDS011;26392;42.696;23.350;2023-02-01T03:50:11;9.98;;;3.40;;
40707;SDS011;26392;42.696;23.350;2023-02-01T03:52:44;5.88;;;2.80;;
40707;SDS011;26392;42.696;23.350;2023-02-01T03:55:16;5.60;;;3.15;;
40707;SDS011;26392;42.696;23.350;2023-02-01T03:57:46;4.93;;;2.63;;
40707;SDS011;26392;42.696;23.350;2023-02-01T04:00:19;6.47;;;2.63;;
40707;SDS011;26392;42.696;23.350;2023-02-01T04:02:47;4.38;;;2.95;;
40707;SDS011;26392;42.696;23.350;2023-02-01T04:05:13;6.43;;;3.03;;
40707;SDS011;26392;42.696;23.350;2023-02-01T04:07:38;6.47;;;2.90;;
40707;SDS011;26392;42.696;23.350;2023-02-01T04:10:04;8.40;;;2.72;;
40707;SDS011;26392;42.696;23.350;2023-02-01T04:12:30;6.20;;;2.90;;
40707;SDS011;26392;42.696;23.350;2023-02-01T04:14:56;4.68;;;2.95;;
40707;SDS011;26392;42.696;23.350;2023-02-01T04:17:21;4.53;;;2.70;;
40707;SDS011;26392;42.696;23.350;2023-02-01T04:19:46;5.20;;;2.53;;
40707;SDS011;26392;42.696;23.350;2023-02-01T04:22:12;5.75;;;3.00;;
40707;SDS011;26392;42.696;23.350;2023-02-01T04:24:38;7.20;;;3.00;;
40707;SDS011;26392;42.696;23.350;2023-02-01T04:27:03;6.47;;;2.35;;
40707;SDS011;26392;42.696;23.350;2023-02-01T04:29:29;4.60;;;2.40;;
40707;SDS011;26392;42.696;23.350;2023-02-01T04:31:54;7.50;;;2.60;;
40707;SDS011;26392;42.696;23.350;2023-02-01T04:34:20;3.35;;;2.22;;
40707;SDS011;26392;42.696;23.350;2023-02-01T04:36:47;7.20;;;2.83;;
40707;SDS011;26392;42.696;23.350;2023-02-01T04:39:13;9.15;;;2.92;;
40707;SDS011;26392;42.696;23.350;2023-02-01T04:41:38;5.97;;;3.50;;
40707;SDS011;26392;42.696;23.350;2023-02-01T04:44:04;10.48;;;3.25;;
40707;SDS011;26392;42.696;23.350;2023-02-01T04:46:29;6.53;;;2.90;;
40707;SDS011;26392;42.696;23.350;2023-02-01T04:48:54;7.03;;;2.67;;
40707;SDS011;26392;42.696;23.350;2023-02-01T04:51:20;4.22;;;2.72;;
40707;SDS011;26392;42.696;23.350;2023-02-01T04:53:45;4.90;;;2.88;;
40707;SDS011;26392;42.696;23.350;2023-02-01T04:56:10;5.10;;;2.70;;
40707;SDS011;26392;42.696;23.350;2023-02-01T04:58:36;8.73;;;3.38;;
40707;SDS011;26392;42.696;23.350;2023-02-01T05:01:02;7.32;;;2.83;;
40707;SDS011;26392;42.696;23.350;2023-02-01T05:03:29;7.43;;;3.35;;
40707;SDS011;26392;42.696;23.350;2023-02-01T05:05:55;7.18;;;3.00;;
40707;SDS011;26392;42.696;23.350;2023-02-01T05:08:21;7.40;;;3.72;;
40707;SDS011;26392;42.696;23.350;2023-02-01T05:10:47;10.07;;;3.65;;
40707;SDS011;26392;42.696;23.350;2023-02-01T05:13:13;5.93;;;2.95;;
40707;SDS011;26392;42.696;23.350;2023-02-01T05:15:57;11.73;;;3.60;;
40707;SDS011;26392;42.696;23.350;2023-02-01T05:18:22;5.53;;;3.38;;
40707;SDS011;26392;42.696;23.350;2023-02-01T05:20:48;6.43;;;3.40;;
40707;SDS011;26392;42.696;23.350;2023-02-01T05:23:13;10.82;;;3.67;;
40707;SDS011;26392;42.696;23.350;2023-02-01T05:25:38;7.75;;;3.08;;
40707;SDS011;26392;42.696;23.350;2023-02-01T05:28:04;5.47;;;2.97;;
40707;SDS011;26392;42.696;23.350;2023-02-01T05:30:29;5.68;;;3.22;;
40707;SDS011;26392;42.696;23.350;2023-02-01T05:32:55;5.82;;;3.10;;
40707;SDS011;26392;42.696;23.350;2023-02-01T05:35:20;5.72;;;2.53;;
40707;SDS011;26392;42.696;23.350;2023-02-01T05:37:45;5.07;;;3.05;;
40707;SDS011;26392;42.696;23.350;2023-02-01T05:40:11;7.55;;;2.92;;
40707;SDS011;26392;42.696;23.350;2023-02-01T05:42:37;7.93;;;3.30;;
40707;SDS011;26392;42.696;23.350;2023-02-01T05:45:02;6.13;;;3.50;;
40707;SDS011;26392;42.696;23.350;2023-02-01T05:47:30;8.68;;;3.72;;
40707;SDS011;26392;42.696;23.350;2023-02-01T05:49:55;8.88;;;3.65;;
40707;SDS011;26392;42.696;23.350;2023-02-01T05:52:21;12.43;;;3.80;;
40707;SDS011;26392;42.696;23.350;2023-02-01T05:54:46;7.28;;;3.38;;
40707;SDS011;26392;42.696;23.350;2023-02-01T05:57:12;6.18;;;3.72;;
40707;SDS011;26392;42.696;23.350;2023-02-01T05:59:38;7.38;;;3.92;;
40707;SDS011;26392;42.696;23.350;2023-02-01T06:02:06;10.25;;;4.28;;
40707;SDS011;26392;42.696;23.350;2023-02-01T06:04:32;10.63;;;4.50;;
40707;SDS011;26392;42.696;23.350;2023-02-01T06:06:58;8.10;;;3.47;;
40707;SDS011;26392;42.696;23.350;2023-02-01T06:09:23;7.75;;;4.07;;
40707;SDS011;26392;42.696;23.350;2023-02-01T06:11:48;5.88;;;4.07;;
40707;SDS011;26392;42.696;23.350;2023-02-01T06:14:14;6.47;;;4.00;;
40707;SDS011;26392;42.696;23.350;2023-02-01T06:16:39;5.47;;;3.33;;
40707;SDS011;26392;42.696;23.350;2023-02-01T06:19:05;9.20;;;3.90;;
40707;SDS011;26392;42.696;23.350;2023-02-01T06:21:30;8.63;;;3.80;;
40707;SDS011;26392;42.696;23.350;2023-02-01T06:23:55;12.05;;;3.70;;
40707;SDS011;26392;42.696;23.350;2023-02-01T06:26:22;4.07;;;2.67;;
40707;SDS011;26392;42.696;23.350;2023-02-01T06:28:48;6.15;;;2.85;;
40707;SDS011;26392;42.696;23.350;2023-02-01T06:31:14;7.18;;;2.95;;
40707;SDS011;26392;42.696;23.350;2023-02-01T06:33:39;3.80;;;2.22;;
40707;SDS011;26392;42.696;23.350;2023-02-01T06:36:06;5.97;;;2.70;;
40707;SDS011;26392;42.696;23.350;2023-02-01T06:38:32;9.25;;;2.95;;
40707;SDS011;26392;42.696;23.350;2023-02-01T06:41:01;5.63;;;3.08;;
40707;SDS011;26392;42.696;23.350;2023-02-01T06:43:27;4.85;;;2.20;;
40707;SDS011;26392;42.696;23.350;2023-02-01T06:45:53;8.23;;;3.00;;
40707;SDS011;26392;42.696;23.350;2023-02-01T06:48:23;5.03;;;2.70;;
40707;SDS011;26392;42.696;23.350;2023-02-01T06:50:49;10.45;;;3.33;;
40707;SDS011;26392;42.696;23.350;2023-02-01T06:53:14;8.10;;;3.00;;
40707;SDS011;26392;42.696;23.350;2023-02-01T06:55:40;6.72;;;3.45;;
40707;SDS011;26392;42.696;23.350;2023-02-01T06:58:05;5.82;;;2.88;;
40707;SDS011;26392;42.696;23.350;2023-02-01T07:00:30;9.07;;;3.22;;
40707;SDS011;26392;42.696;23.350;2023-02-01T07:02:57;6.88;;;3.35;;
40707;SDS011;26392;42.696;23.350;2023-02-01T07:05:23;9.13;;;3.08;;
40707;SDS011;26392;42.696;23.350;2023-02-01T07:07:48;7.22;;;2.97;;
40707;SDS011;26392;42.696;23.350;2023-02-01T07:10:13;9.13;;;3.13;;
40707;SDS011;26392;42.696;23.350;2023-02-01T07:12:39;8.70;;;3.28;;
40707;SDS011;26392;42.696;23.350;2023-02-01T07:15:05;8.15;;;3.00;;
40707;SDS011;26392;42.696;23.350;2023-02-01T07:17:31;9.85;;;3.42;;
40707;SDS011;26392;42.696;23.350;2023-02-01T07:19:56;8.73;;;2.95;;
40707;SDS011;26392;42.696;23.350;2023-02-01T07:22:24;8.20;;;3.42;;
40707;SDS011;26392;42.696;23.350;2023-02-01T07:24:59;6.82;;;3.20;;
40707;SDS011;26392;42.696;23.350;2023-02-01T07:27:25;11.48;;;3.42;;
40707;SDS011;26392;42.696;23.350;2023-02-01T07:29:50;8.20;;;3.00;;
40707;SDS011;26392;42.696;23.350;2023-02-01T07:32:16;9.98;;;3.15;;
40707;SDS011;26392;42.696;23.350;2023-02-01T07:34:43;9.07;;;3.47;;
40707;SDS011;26392;42.696;23.350;2023-02-01T07:37:09;7.28;;;2.58;;
40707;SDS011;26392;42.696;23.350;2023-02-01T07:39:35;6.22;;;3.08;;
40707;SDS011;26392;42.696;23.350;2023-02-01T07:42:00;6.00;;;2.95;;
40707;SDS011;26392;42.696;23.350;2023-02-01T07:44:26;8.23;;;3.17;;
40707;SDS011;26392;42.696;23.350;2023-02-01T07:46:52;9.73;;;3.65;;
40707;SDS011;26392;42.696;23.350;2023-02-01T07:49:17;10.30;;;3.53;;
40707;SDS011;26392;42.696;23.350;2023-02-01T07:51:43;6.57;;;3.13;;
40707;SDS011;26392;42.696;23.350;2023-02-01T07:54:08;6.40;;;3.70;;
40707;SDS011;26392;42.696;23.350;2023-02-01T07:56:34;9.10;;;3.38;;
40707;SDS011;26392;42.696;23.350;2023-02-01T07:58:59;8.63;;;2.72;;
40707;SDS011;26392;42.696;23.350;2023-02-01T08:01:26;9.02;;;2.67;;
40707;SDS011;26392;42.696;23.350;2023-02-01T08:06:22;5.95;;;3.22;;
40707;SDS011;26392;42.696;23.350;2023-02-01T08:08:49;9.18;;;2.47;;
40707;SDS011;26392;42.696;23.350;2023-02-01T08:11:15;3.45;;;2.10;;
40707;SDS011;26392;42.696;23.350;2023-02-01T08:13:41;8.63;;;2.55;;
40707;SDS011;26392;42.696;23.350;2023-02-01T08:16:08;6.18;;;2.65;;
40707;SDS011;26392;42.696;23.350;2023-02-01T08:18:35;5.60;;;2.83;;
40707;SDS011;26392;42.696;23.350;2023-02-01T08:21:04;6.88;;;2.92;;
40707;SDS011;26392;42.696;23.350;2023-02-01T08:23:31;6.72;;;2.88;;
40707;SDS011;26392;42.696;23.350;2023-02-01T08:26:04;7.03;;;2.05;;
40707;SDS011;26392;42.696;23.350;2023-02-01T08:28:30;15.15;;;2.88;;
40707;SDS011;26392;42.696;23.350;2023-02-01T08:30:55;5.30;;;2.60;;
40707;SDS011;26392;42.696;23.350;2023-02-01T08:33:21;6.63;;;2.40;;
40707;SDS011;26392;42.696;23.350;2023-02-01T08:35:46;6.65;;;2.72;;
40707;SDS011;26392;42.696;23.350;2023-02-01T08:38:12;10.75;;;3.08;;
40707;SDS011;26392;42.696;23.350;2023-02-01T08:40:37;5.80;;;2.83;;
40707;SDS011;26392;42.696;23.350;2023-02-01T08:43:03;10.10;;;2.83;;
40707;SDS011;26392;42.696;23.350;2023-02-01T08:45:28;4.07;;;2.30;;
40707;SDS011;26392;42.696;23.350;2023-02-01T08:47:55;7.00;;;2.53;;
40707;SDS011;26392;42.696;23.350;2023-02-01T08:50:21;11.02;;;2.60;;
40707;SDS011;26392;42.696;23.350;2023-02-01T08:52:48;8.43;;;3.58;;
40707;SDS011;26392;42.696;23.350;2023-02-01T08:55:14;10.30;;;3.20;;
40707;SDS011;26392;42.696;23.350;2023-02-01T08:57:40;9.05;;;2.35;;
40707;SDS011;26392;42.696;23.350;2023-02-01T09:00:06;7.95;;;2.50;;
40707;SDS011;26392;42.696;23.350;2023-02-01T09:02:34;11.82;;;2.33;;
40707;SDS011;26392;42.696;23.350;2023-02-01T09:05:00;4.95;;;2.55;;
40707;SDS011;26392;42.696;23.350;2023-02-01T09:07:26;6.10;;;2.45;;
40707;SDS011;26392;42.696;23.350;2023-02-01T09:09:51;4.90;;;2.40;;
40707;SDS011;26392;42.696;23.350;2023-02-01T09:12:17;8.45;;;2.72;;
40707;SDS011;26392;42.696;23.350;2023-02-01T09:14:43;6.40;;;2.40;;
40707;SDS011;26392;42.696;23.350;2023-02-01T09:17:08;6.45;;;2.13;;
40707;SDS011;26392;42.696;23.350;2023-02-01T09:19:34;7.07;;;2.30;;
40707;SDS011;26392;42.696;23.350;2023-02-01T09:21:59;4.13;;;2.15;;
40707;SDS011;26392;42.696;23.350;2023-02-01T09:24:24;6.90;;;2.63;;
40707;SDS011;26392;42.696;23.350;2023-02-01T09:26:50;9.30;;;2.53;;
40707;SDS011;26392;42.696;23.350;2023-02-01T09:29:16;7.05;;;1.73;;
40707;SDS011;26392;42.696;23.350;2023-02-01T09:31:41;3.67;;;2.33;;
40707;SDS011;26392;42.696;23.350;2023-02-01T09:34:07;4.30;;;1.80;;
40707;SDS011;26392;42.696;23.350;2023-02-01T09:36:33;4.75;;;2.20;;
40707;SDS011;26392;42.696;23.350;2023-02-01T09:38:59;5.85;;;2.30;;
40707;SDS011;26392;42.696;23.350;2023-02-01T09:47:10;6.00;;;2.65;;
40707;SDS011;26392;42.696;23.350;2023-02-01T09:49:39;9.05;;;3.03;;
40707;SDS011;26392;42.696;23.350;2023-02-01T09:52:13;6.82;;;2.42;;
40707;SDS011;26392;42.696;23.350;2023-02-01T09:54:42;4.45;;;2.15;;
40707;SDS011;26392;42.696;23.350;2023-02-01T09:57:16;6.25;;;2.08;;
40707;SDS011;26392;42.696;23.350;2023-02-01T10:00:33;5.50;;;1.98;;
40707;SDS011;26392;42.696;23.350;2023-02-01T10:02:43;7.13;;;2.07;;
40707;SDS011;26392;42.696;23.350;2023-02-01T10:05:12;6.97;;;2.00;;
40707;SDS011;26392;42.696;23.350;2023-02-01T10:07:49;6.53;;;1.85;;
40707;SDS011;26392;42.696;23.350;2023-02-01T10:10:29;4.00;;;2.00;;
40707;SDS011;26392;42.696;23.350;2023-02-01T10:18:49;9.57;;;2.35;;
40707;SDS011;26392;42.696;23.350;2023-02-01T10:21:40;4.35;;;2.10;;
40707;SDS011;26392;42.696;23.350;2023-02-01T10:27:38;8.25;;;2.35;;
40707;SDS011;26392;42.696;23.350;2023-02-01T10:30:24;7.28;;;2.17;;
40707;SDS011;26392;42.696;23.350;2023-02-01T10:32:56;3.17;;;1.80;;
40707;SDS011;26392;42.696;23.350;2023-02-01T10:35:31;3.65;;;1.90;;
40707;SDS011;26392;42.696;23.350;2023-02-01T10:38:00;12.73;;;2.25;;
40707;SDS011;26392;42.696;23.350;2023-02-01T10:40:27;4.82;;;2.30;;
40707;SDS011;26392;42.696;23.350;2023-02-01T10:42:53;3.65;;;1.90;;
40707;SDS011;26392;42.696;23.350;2023-02-01T10:45:25;10.10;;;2.30;;
40707;SDS011;26392;42.696;23.350;2023-02-01T10:47:53;5.68;;;1.67;;
40707;SDS011;26392;42.696;23.350;2023-02-01T10:55:40;3.83;;;1.63;;
40707;SDS011;26392;42.696;23.350;2023-02-01T10:58:16;2.88;;;1.65;;
40707;SDS011;26392;42.696;23.350;2023-02-01T11:00:48;5.20;;;1.90;;
40707;SDS011;26392;42.696;23.350;2023-02-01T11:05:46;7.35;;;1.70;;
40707;SDS011;26392;42.696;23.350;2023-02-01T11:08:16;3.75;;;1.42;;
40707;SDS011;26392;42.696;23.350;2023-02-01T11:10:44;2.80;;;1.42;;
40707;SDS011;26392;42.696;23.350;2023-02-01T11:13:13;5.75;;;2.00;;
40707;SDS011;26392;42.696;23.350;2023-02-01T11:15:43;3.85;;;1.60;;
40707;SDS011;26392;42.696;23.350;2023-02-01T11:18:17;2.90;;;1.63;;
40707;SDS011;26392;42.696;23.350;2023-02-01T11:20:44;2.85;;;1.30;;
40707;SDS011;26392;42.696;23.350;2023-02-01T11:23:18;4.72;;;1.35;;
40707;SDS011;26392;42.696;23.350;2023-02-01T11:25:54;5.22;;;1.48;;
40707;SDS011;26392;42.696;23.350;2023-02-01T11:28:24;7.93;;;1.95;;
40707;SDS011;26392;42.696;23.350;2023-02-01T11:31:03;3.53;;;1.50;;
40707;SDS011;26392;42.696;23.350;2023-02-01T11:33:31;2.58;;;1.48;;
40707;SDS011;26392;42.696;23.350;2023-02-01T11:36:03;5.07;;;1.30;;
40707;SDS011;26392;42.696;23.350;2023-02-01T11:38:33;3.78;;;1.90;;
40707;SDS011;26392;42.696;23.350;2023-02-01T11:41:10;3.55;;;1.65;;
40707;SDS011;26392;42.696;23.350;2023-02-01T11:43:38;4.25;;;1.38;;
40707;SDS011;26392;42.696;23.350;2023-02-01T11:46:23;3.03;;;1.85;;
40707;SDS011;26392;42.696;23.350;2023-02-01T11:49:15;6.10;;;2.08;;
40707;SDS011;26392;42.696;23.350;2023-02-01T12:34:10;2.63;;;1.23;;
40707;SDS011;26392;42.696;23.350;2023-02-01T12:36:49;2.85;;;1.38;;
40707;SDS011;26392;42.696;23.350;2023-02-01T12:42:00;3.95;;;1.40;;
40707;SDS011;26392;42.696;23.350;2023-02-01T12:47:33;2.47;;;1.40;;
40707;SDS011;26392;42.696;23.350;2023-02-01T12:50:05;1.95;;;1.13;;
40707;SDS011;26392;42.696;23.350;2023-02-01T12:52:47;2.47;;;1.33;;
40707;SDS011;26392;42.696;23.350;2023-02-01T12:55:24;2.00;;;1.38;;
40707;SDS011;26392;42.696;23.350;2023-02-01T13:00:45;4.30;;;1.73;;
40707;SDS011;26392;42.696;23.350;2023-02-01T13:03:31;3.20;;;1.30;;
40707;SDS011;26392;42.696;23.350;2023-02-01T13:06:15;4.40;;;1.85;;
40707;SDS011;26392;42.696;23.350;2023-02-01T13:08:45;3.95;;;1.50;;
40707;SDS011;26392;42.696;23.350;2023-02-01T13:11:17;3.40;;;1.40;;
40707;SDS011;26392;42.696;23.350;2023-02-01T13:16:47;4.10;;;1.60;;
40707;SDS011;26392;42.696;23.350;2023-02-01T13:21:58;3.30;;;1.65;;
40707;SDS011;26392;42.696;23.350;2023-02-01T13:24:36;8.32;;;3.08;;
40707;SDS011;26392;42.696;23.350;2023-02-01T13:27:10;5.30;;;1.60;;
40707;SDS011;26392;42.696;23.350;2023-02-01T13:29:37;5.85;;;1.60;;
40707;SDS011;26392;42.696;23.350;2023-02-01T13:38:10;3.50;;;1.40;;
40707;SDS011;26392;42.696;23.350;2023-02-01T13:40:40;2.25;;;1.30;;
40707;SDS011;26392;42.696;23.350;2023-02-01T13:43:13;5.18;;;1.67;;
40707;SDS011;26392;42.696;23.350;2023-02-01T13:45:44;3.70;;;1.33;;
40707;SDS011;26392;42.696;23.350;2023-02-01T13:48:21;1.63;;;1.25;;
40707;SDS011;26392;42.696;23.350;2023-02-01T13:50:56;2.80;;;1.75;;
40707;SDS011;26392;42.696;23.350;2023-02-01T13:53:28;7.05;;;1.75;;
40707;SDS011;26392;42.696;23.350;2023-02-01T13:58:29;4.65;;;1.73;;
40707;SDS011;26392;42.696;23.350;2023-02-01T14:03:51;4.18;;;2.10;;
40707;SDS011;26392;42.696;23.350;2023-02-01T14:14:44;3.92;;;1.75;;
40707;SDS011;26392;42.696;23.350;2023-02-01T14:19:35;3.97;;;2.00;;
40707;SDS011;26392;42.696;23.350;2023-02-01T14:22:01;3.35;;;1.73;;
40707;SDS011;26392;42.696;23.350;2023-02-01T14:24:52;4.25;;;2.35;;
40707;SDS011;26392;42.696;23.350;2023-02-01T14:27:23;3.47;;;1.65;;
40707;SDS011;26392;42.696;23.350;2023-02-01T14:30:01;3.88;;;1.90;;
40707;SDS011;26392;42.696;23.350;2023-02-01T14:35:06;6.03;;;1.58;;
40707;SDS011;26392;42.696;23.350;2023-02-01T14:37:42;2.35;;;1.25;;
40707;SDS011;26392;42.696;23.350;2023-02-01T14:42:38;4.68;;;2.00;;
40707;SDS011;26392;42.696;23.350;2023-02-01T14:47:54;4.55;;;2.28;;
40707;SDS011;26392;42.696;23.350;2023-02-01T14:50:41;4.63;;;2.25;;
40707;SDS011;26392;42.696;23.350;2023-02-01T14:58:10;5.15;;;2.22;;
40707;SDS011;26392;42.696;23.350;2023-02-01T15:00:50;11.20;;;1.92;;
40707;SDS011;26392;42.696;23.350;2023-02-01T15:03:34;8.73;;;2.20;;
40707;SDS011;26392;42.696;23.350;2023-02-01T15:06:01;6.00;;;1.70;;
40707;SDS011;26392;42.696;23.350;2023-02-01T15:08:33;3.67;;;2.22;;
40707;SDS011;26392;42.696;23.350;2023-02-01T15:11:01;12.60;;;3.95;;
40707;SDS011;26392;42.696;23.350;2023-02-01T15:13:31;6.10;;;2.50;;
40707;SDS011;26392;42.696;23.350;2023-02-01T15:16:04;6.15;;;2.95;;
40707;SDS011;26392;42.696;23.350;2023-02-01T15:18:36;7.55;;;2.28;;
40707;SDS011;26392;42.696;23.350;2023-02-01T15:21:03;6.32;;;2.55;;
40707;SDS011;26392;42.696;23.350;2023-02-01T15:23:31;8.13;;;3.45;;
40707;SDS011;26392;42.696;23.350;2023-02-01T15:25:57;6.13;;;2.67;;
40707;SDS011;26392;42.696;23.350;2023-02-01T15:28:24;9.20;;;3.25;;
40707;SDS011;26392;42.696;23.350;2023-02-01T15:30:58;4.13;;;2.25;;
40707;SDS011;26392;42.696;23.350;2023-02-01T15:33:26;5.40;;;2.47;;
40707;SDS011;26392;42.696;23.350;2023-02-01T15:35:53;4.28;;;2.00;;
40707;SDS011;26392;42.696;23.350;2023-02-01T15:38:35;7.28;;;3.20;;
40707;SDS011;26392;42.696;23.350;2023-02-01T15:46:15;4.50;;;2.90;;
40707;SDS011;26392;42.696;23.350;2023-02-01T15:48:45;10.57;;;3.30;;
40707;SDS011;26392;42.696;23.350;2023-02-01T15:51:20;14.73;;;4.55;;
40707;SDS011;26392;42.696;23.350;2023-02-01T15:53:52;11.52;;;4.68;;
40707;SDS011;26392;42.696;23.350;2023-02-01T15:56:24;10.20;;;4.45;;
40707;SDS011;26392;42.696;23.350;2023-02-01T15:58:52;13.05;;;5.40;;
40707;SDS011;26392;42.696;23.350;2023-02-01T16:01:21;14.00;;;4.80;;
40707;SDS011;26392;42.696;23.350;2023-02-01T16:03:47;12.00;;;5.05;;
40707;SDS011;26392;42.696;23.350;2023-02-01T16:08:52;12.95;;;4.57;;
40707;SDS011;26392;42.696;23.350;2023-02-01T16:11:40;7.90;;;3.60;;
40707;SDS011;26392;42.696;23.350;2023-02-01T16:14:14;6.03;;;3.20;;
40707;SDS011;26392;42.696;23.350;2023-02-01T16:16:39;11.55;;;4.25;;
40707;SDS011;26392;42.696;23.350;2023-02-01T16:19:05;10.48;;;4.85;;
40707;SDS011;26392;42.696;23.350;2023-02-01T16:21:31;11.20;;;4.82;;
40707;SDS011;26392;42.696;23.350;2023-02-01T16:23:57;7.68;;;4.72;;
40707;SDS011;26392;42.696;23.350;2023-02-01T16:26:24;11.13;;;4.72;;
40707;SDS011;26392;42.696;23.350;2023-02-01T16:28:49;12.82;;;3.78;;
40707;SDS011;26392;42.696;23.350;2023-02-01T16:31:16;7.00;;;3.45;;
40707;SDS011;26392;42.696;23.350;2023-02-01T16:33:49;9.30;;;3.38;;
40707;SDS011;26392;42.696;23.350;2023-02-01T16:36:15;6.53;;;3.25;;
40707;SDS011;26392;42.696;23.350;2023-02-01T16:38:41;6.70;;;2.97;;
40707;SDS011;26392;42.696;23.350;2023-02-01T16:41:09;5.43;;;2.75;;
40707;SDS011;26392;42.696;23.350;2023-02-01T16:43:37;5.32;;;2.75;;
40707;SDS011;26392;42.696;23.350;2023-02-01T16:46:03;9.80;;;2.72;;
40707;SDS011;26392;42.696;23.350;2023-02-01T16:48:30;6.10;;;2.95;;
40707;SDS011;26392;42.696;23.350;2023-02-01T16:50:59;11.15;;;3.08;;
40707;SDS011;26392;42.696;23.350;2023-02-01T16:53:27;5.43;;;3.05;;
40707;SDS011;26392;42.696;23.350;2023-02-01T16:55:54;6.43;;;2.90;;
40707;SDS011;26392;42.696;23.350;2023-02-01T16:58:22;14.02;;;5.53;;
40707;SDS011;26392;42.696;23.350;2023-02-01T17:00:48;5.85;;;2.85;;
40707;SDS011;26392;42.696;23.350;2023-02-01T17:03:15;8.65;;;2.80;;
40707;SDS011;26392;42.696;23.350;2023-02-01T17:05:45;11.38;;;3.15;;
40707;SDS011;26392;42.696;23.350;2023-02-01T17:08:18;5.57;;;2.65;;
40707;SDS011;26392;42.696;23.350;2023-02-01T17:10:49;6.63;;;2.50;;
40707;SDS011;26392;42.696;23.350;2023-02-01T17:13:15;6.57;;;2.88;;
40707;SDS011;26392;42.696;23.350;2023-02-01T17:15:49;7.40;;;2.72;;
40707;SDS011;26392;42.696;23.350;2023-02-01T17:18:18;5.63;;;2.78;;
40707;SDS011;26392;42.696;23.350;2023-02-01T17:20:44;5.80;;;2.72;;
40707;SDS011;26392;42.696;23.350;2023-02-01T17:23:12;8.52;;;3.50;;
40707;SDS011;26392;42.696;23.350;2023-02-01T17:25:38;13.15;;;5.18;;
40707;SDS011;26392;42.696;23.350;2023-02-01T17:28:04;10.88;;;4.82;;
40707;SDS011;26392;42.696;23.350;2023-02-01T17:30:29;13.75;;;6.10;;